Tiempo atmosférico en la estación meteorológica de Berga, Barcelona (690 m.)



Fecha
DESCASC
Temp. máxima en grados centígrados (hora)
DESCASC
Temp. mínima en grados centígrados (hora)
DESCASC
Temp. media en grados centígrados
DESCASC
Racha de viento máxima en m/sg (hora)
DESCASC
Velocidad máxima media en intervalos de 10 minutos(hora)
DESCASC
Precipitaciones diarias en mm
DESCASC
Precipitaciones de 00:00 a 06:00 en mm
DESCASC
Precipitaciones de 06:00 a 12:00 en mm
DESCASC
Precipitaciones de 12:00 a 18:00 en mm
DESCASC
Precipitaciones de 18:00 a 24:00 en mm
DESCASC
15-08-2019 29.9 (15:50) 15.8 (07:10) 22.8 13.33 (15:50) 8.33 (17:10) 0 0 0 0 0
14-08-2019 28.6 (17:30) 13.8 (00:00) 21.2 7.5 (16:40) 4.44 (19:10) 0 0 0 0 0
13-08-2019 26.1 (17:00) 13.6 (00:00) 19.9 8.89 (15:00) 6.11 (13:40) 0 0 0 0 0
12-08-2019 27.6 (16:10) 18.9 (00:00) 23.3 11.67 (17:40) 7.22 (16:50) 0.2 0.2 0 0 0
11-08-2019 31.7 (15:50) 19.1 (00:00) 25.4 12.5 (14:40) 7.78 (15:20) 0 0 0 0 0
10-08-2019 32.4 (16:50) 20 (00:00) 26.2 11.67 (14:10) 7.78 (17:10) 0 0 0 0 0
09-08-2019 35.7 (16:50) 19.2 (00:00) 27.5 14.17 (15:50) 8.61 (13:50) 0 0 0 0 0
08-08-2019 33.2 (16:30) 19.1 (00:00) 26.2 11.94 (16:00) 7.22 (19:40) 0 0 0 0 0
07-08-2019 31.1 (15:40) 19.8 (00:00) 25.4 9.17 (17:30) 5.83 (17:30) 0 0 0 0 0
06-08-2019 33.3 (17:30) 20 (00:00) 26.6 8.89 (15:10) 4.72 (17:00) 0 0 0 0 0
05-08-2019 33.4 (17:10) 18.8 (00:00) 26.1 8.89 (17:40) 5.83 (17:40) 0 0 0 0 0
04-08-2019 33.4 (15:50) 18 (00:00) 25.7 10 (17:30) 6.39 (17:30) 0 0 0 0 0
03-08-2019 32.4 (15:30) 15.9 (00:00) 24.2 10.28 (15:20) 6.67 (15:20) 0 0 0 0 0
02-08-2019 32 (14:50) 17.3 (00:00) 24.6 15 (15:40) 8.89 (15:40) 0 0 0 0 0
01-08-2019 30.9 (17:30) 18.6 (00:00) 24.8 8.33 (18:10) 5 (19:00) 0 0 0 0 0
31-07-2019 29.1 (15:50) 17 (00:00) 23.1 8.89 (16:30) 5.28 (15:40) 0 0 0 0 0
30-07-2019 28.5 (15:20) 18.9 (00:00) 23.7 10.83 (17:50) 7.22 (15:40) 0 0 0 0 0
29-07-2019 30.5 (16:30) 13.7 (00:00) 22.1 11.11 (16:00) 6.39 (14:30) 0 0 0 0 0
28-07-2019 26.3 (17:30) 12.1 (00:00) 19.2 9.72 (19:20) 5.83 (18:10) 0 0 0 0 0
27-07-2019 22.3 (18:00) 17.2 (00:00) 19.8 9.72 (18:50) 6.67 (18:40) 8.2 0 6.2 2 0
26-07-2019 31.4 (15:50) 18.5 (00:00) 24.9 13.61 (17:10) 6.67 (17:10) 3.4 0 0 3.2 0.2
25-07-2019 33.9 (16:30) 19.3 (00:00) 26.6 9.72 (18:20) 5.83 (17:00) 0 0 0 0 0
24-07-2019 34.8 (16:50) 19 (00:00) 26.9 7.78 (18:10) 5 (18:20) 0 0 0 0 0
23-07-2019 36.6 (16:10) 18.6 (00:00) 27.6 13.33 (15:10) 7.5 (14:40) 0 0 0 0 0
22-07-2019 35.3 (15:30) 19.4 (00:00) 27.3 9.72 (15:50) 5.28 (16:10) 0 0 0 0 0
21-07-2019 32.9 (15:40) 18.3 (00:00) 25.6 8.89 (16:40) 4.72 (14:10) 0 0 0 0 0
20-07-2019 31.8 (16:20) 17.1 (00:00) 24.4 8.89 (14:30) 5.28 (14:30) 0 0 0 0 0
19-07-2019 27.9 (16:20) 17 (00:00) 22.4 7.78 (16:10) 5 (16:10) 0 0 0 0 0

Gráficas

Temp. máximas Temp. mínimas Temp. medias Precipitaciones Rachas de viento máximas Velocidades máximas media en intervalos de 10 minutos

Datos horarios

Fecha y hora oficial Temperatura (ºC) Velocidad del viento (km/h) Dirección del viento Racha (km/h) Dirección de racha Precipitación (mm) Presión (hPa) Tendencia (hPa) Humedad (%)
2019-08-17 23:00:00 22.9 4 Sudoeste 7 Sudoeste 0 -- -- 74
2019-08-17 22:00:00 23.7 4 Sudoeste 14 Sudoeste 0 -- -- 72
2019-08-17 21:00:00 25.1 9 Sudoeste 20 Sudoeste 0 -- -- 66
2019-08-17 20:00:00 27.6 10 Sudoeste 20 Sudoeste 0 -- -- 60
2019-08-17 19:00:00 29.7 12 Sudoeste 29 Sudoeste 0 -- -- 55
2019-08-17 18:00:00 30.9 13 Sudoeste 27 Sur 0 -- -- 50
2019-08-17 17:00:00 32.4 17 Sudoeste 28 Sudoeste 0 -- -- 41
2019-08-17 16:00:00 32.9 12 Sudoeste 28 Sudoeste 0 -- -- 34
2019-08-17 15:00:00 32.6 12 Sudoeste 33 Sudoeste 0 -- -- 33
2019-08-17 14:00:00 31.4 14 Sudoeste 24 Sudoeste 0 -- -- 35
2019-08-17 13:00:00 29.7 8 Sur 23 Sudoeste 0 -- -- 43
2019-08-17 12:00:00 29 6 Sudoeste 15 Sudoeste 0 -- -- 46
2019-08-17 11:00:00 26.4 9 Oeste 15 Oeste 0 -- -- 60
2019-08-17 10:00:00 24.6 4 Sudoeste 12 Este 0 -- -- 56
2019-08-17 09:00:00 20.9 5 Este 19 Este 0 -- -- 65
2019-08-17 08:00:00 18.8 8 Este 18 Este 0 -- -- 71
2019-08-17 07:00:00 18.5 8 Este 17 Nordeste 0 -- -- 73
2019-08-17 06:00:00 19.3 11 Nordeste 20 Este 0 -- -- 72
2019-08-17 05:00:00 19.4 9 Este 14 Este 0 -- -- 73
2019-08-17 04:00:00 20.1 8 Nordeste 15 Este 0 -- -- 71
2019-08-17 03:00:00 20.4 10 Nordeste 17 Nordeste 0 -- -- 71
2019-08-17 02:00:00 20.4 6 Nordeste 12 Este 0 -- -- 71
2019-08-17 01:00:00 20.8 5 Este 9 Este 0 -- -- 74
2019-08-17 00:00:00 21.7 4 Este 6 Este 0 -- -- 74
2019-08-16 23:00:00 23 4 Sudoeste 8 Sudoeste 0 -- -- 70
2019-08-16 22:00:00 23.9 2 Oeste 8 Sur 0 -- -- 67
2019-08-16 21:00:00 25.3 4 Sur 13 Sudoeste 0 -- -- 63
2019-08-16 20:00:00 27 10 Sudoeste 27 Oeste 0 -- -- 58
2019-08-16 19:00:00 30.1 15 Sudoeste 32 Sudoeste 0 -- -- 32
2019-08-16 18:00:00 30.4 20 Sudoeste 33 Sudoeste 0 -- -- 24
2019-08-16 17:00:00 30.5 17 Sudoeste 34 Sudoeste 0 -- -- 45
2019-08-16 16:00:00 30.8 19 Sudoeste 34 Sudoeste 0 -- -- 24
2019-08-16 15:00:00 29.8 18 Sudoeste 34 Sudoeste 0 -- -- 27
2019-08-16 14:00:00 28.7 14 Sudoeste 30 Sudoeste 0 -- -- 51
2019-08-16 13:00:00 27 9 Sur 22 Sudoeste 0 -- -- 53
2019-08-16 12:00:00 25.9 9 Sudoeste 20 Oeste 0 -- -- 59
2019-08-16 11:00:00 24 8 Sudoeste 14 Sudoeste 0 -- -- 68
2019-08-16 10:00:00 20.8 3 Este 10 Sudeste 0 -- -- 81
2019-08-16 09:00:00 19.2 3 Sudoeste 7 Sudoeste 0 -- -- 89
2019-08-16 08:00:00 18.6 5 Este 8 Sudeste 0 -- -- 88
2019-08-16 07:00:00 18.9 4 Sudoeste 6 Sudoeste 0 -- -- 89
2019-08-16 06:00:00 18.8 4 Este 9 Sur 0 -- -- 90
2019-08-16 05:00:00 18.9 4 Sudoeste 7 Sudoeste 0 -- -- 88
2019-08-16 04:00:00 19 6 Sudoeste 11 Sudoeste 0 -- -- 89
2019-08-16 03:00:00 19.4 4 Sur 9 Sudoeste 0 -- -- 88
2019-08-16 02:00:00 19.7 6 Oeste 9 Oeste 0 -- -- 86
2019-08-16 01:00:00 20.1 7 Sudoeste 10 Sudoeste 0 -- -- 86
2019-08-16 00:00:00 20.6 5 Sudoeste 10 Sudoeste 0 -- -- 82
2019-08-15 23:00:00 21 3 Sudoeste 12 Sudoeste 0 -- -- 80
2019-08-15 22:00:00 22 3 Nordeste 14 Este 0 -- -- 71
2019-08-15 21:00:00 23 8 Este 22 Sudeste 0 -- -- 67
2019-08-15 20:00:00 25.4 5 Nordeste 33 Oeste 0 -- -- 60
2019-08-15 19:00:00 29.1 22 Sudoeste 38 Sudoeste 0 -- -- 39
2019-08-15 18:00:00 29.1 24 Oeste 44 Sudoeste 0 -- -- 40
2019-08-15 17:00:00 29.4 25 Oeste 45 Sudoeste 0 -- -- 40
2019-08-15 16:00:00 29.8 24 Oeste 48 Sudoeste 0 -- -- 39
2019-08-15 15:00:00 29.5 23 Sudoeste 41 Sudoeste 0 -- -- 39
2019-08-15 14:00:00 28.8 24 Sudoeste 44 Sudoeste 0 -- -- 41
2019-08-15 13:00:00 27.7 9 Oeste 26 Sudoeste 0 -- -- 48
2019-08-15 12:00:00 25.9 8 Sudoeste 21 Sudoeste 0 -- -- 54
2019-08-15 11:00:00 24 7 Oeste 16 Sudoeste 0 -- -- 60
2019-08-15 10:00:00 21.4 6 Sudoeste 11 Sudoeste 0 -- -- 72
2019-08-15 09:00:00 17.7 5 Este 14 Este 0 -- -- 72
2019-08-15 08:00:00 16.2 6 Nordeste 12 Este 0 -- -- 75
2019-08-15 07:00:00 15.9 8 Este 14 Este 0 -- -- 76
2019-08-15 06:00:00 16 7 Este 15 Este 0 -- -- 76
2019-08-15 05:00:00 16.7 6 Este 13 Este 0 -- -- 74
2019-08-15 04:00:00 17.1 6 Este 15 Este 0 -- -- 72
2019-08-15 03:00:00 17.2 6 Este 12 Nordeste 0 -- -- 73
2019-08-15 02:00:00 17.7 5 Este 9 Este 0 -- -- 72
2019-08-15 01:00:00 18.8 4 Este 9 Este 0 -- -- 68
2019-08-15 00:00:00 19.7 4 Este 6 Nordeste 0 -- -- 67
2019-08-14 23:00:00 20.8 2 Sudoeste 10 Oeste 0 -- -- 63
2019-08-14 22:00:00 21.4 7 Oeste 12 Sudoeste 0 -- -- 62
2019-08-14 21:00:00 23.2 4 Sudoeste 17 Sudoeste 0 -- -- 53
2019-08-14 20:00:00 25.5 9 Sudoeste 24 Sudoeste 0 -- -- 45
2019-08-14 19:00:00 28.1 12 Sudoeste 26 Sudoeste 0 -- -- 35
2019-08-14 18:00:00 28.5 10 Sudoeste 27 Sudoeste 0 -- -- 29
2019-08-14 17:00:00 28.3 14 Sudoeste 27 Sudoeste 0 -- -- 30
2019-08-14 16:00:00 28.2 14 Oeste 26 Sudoeste 0 -- -- 31
2019-08-14 15:00:00 26.9 13 Sudoeste 26 Oeste 0 -- -- 33
2019-08-14 14:00:00 26.1 7 Sudoeste 24 Sudoeste 0 -- -- 38
2019-08-14 13:00:00 24.3 10 Sudoeste 23 Sudoeste 0 -- -- 43
2019-08-14 12:00:00 23 8 Sudoeste 21 Oeste 0 -- -- 48
2019-08-14 11:00:00 21.1 8 Oeste 15 Oeste 0 -- -- 58
2019-08-14 10:00:00 19 4 Sudeste 9 Sudoeste 0 -- -- 68
2019-08-14 09:00:00 16.4 4 Este 14 Este 0 -- -- 69
2019-08-14 08:00:00 14.2 8 Este 14 Nordeste 0 -- -- 77
2019-08-14 07:00:00 14.1 6 Este 13 Este 0 -- -- 76
2019-08-14 06:00:00 14.2 5 Este 10 Este 0 -- -- 77
2019-08-14 05:00:00 14.5 5 Este 10 Este 0 -- -- 75
2019-08-14 04:00:00 14.9 6 Este 10 Este 0 -- -- 73
2019-08-14 03:00:00 15.7 5 Este 12 Este 0 -- -- 70
2019-08-14 02:00:00 16.7 6 Nordeste 12 Nordeste 0 -- -- 65
2019-08-14 01:00:00 17.8 5 Este 10 Este 0 -- -- 61
2019-08-14 00:00:00 18.6 6 Este 14 Nordeste 0 -- -- 58
2019-08-13 23:00:00 19.5 8 Este 14 Nordeste 0 -- -- 52
2019-08-13 22:00:00 20.8 7 Sudoeste 14 Sudoeste 0 -- -- 44
2019-08-13 21:00:00 21.8 11 Sudoeste 20 Sudoeste 0 -- -- 44
2019-08-13 20:00:00 24.1 13 Sudoeste 21 Oeste 0 -- -- 39
2019-08-13 19:00:00 24.5 14 Sudoeste 26 Oeste 0 -- -- 37
2019-08-13 18:00:00 25.9 13 Sudoeste 27 Sudoeste 0 -- -- 34
2019-08-13 17:00:00 26.1 13 Sudoeste 28 Sudoeste 0 -- -- 33
2019-08-13 16:00:00 25.7 17 Sudoeste 31 Oeste 0 -- -- 34
2019-08-13 15:00:00 24.8 21 Sudoeste 32 Sudoeste 0 -- -- 35
2019-08-13 14:00:00 24.4 18 Sudoeste 31 Sudoeste 0 -- -- 37
2019-08-13 13:00:00 23.2 17 Sudoeste 28 Oeste 0 -- -- 41
2019-08-13 12:00:00 20.8 8 Sudoeste 19 Oeste 0 -- -- 52
2019-08-13 11:00:00 18.6 8 Sudoeste 14 Sudoeste 0 -- -- 59
2019-08-13 10:00:00 16 5 Oeste 10 Sudoeste 0 -- -- 65
2019-08-13 09:00:00 14.4 3 Oeste 7 Sur 0 -- -- 70
2019-08-13 08:00:00 13.6 4 Sudoeste 8 Sur 0 -- -- 77
2019-08-13 07:00:00 14 3 Este 6 Nordeste 0 -- -- 79
2019-08-13 06:00:00 14 4 Este 7 Sudoeste 0 -- -- 73
2019-08-13 05:00:00 14.4 4 Oeste 7 Sudoeste 0 -- -- 70
2019-08-13 04:00:00 15.6 4 Nordeste 7 Sur 0 -- -- 65
2019-08-13 03:00:00 16.6 4 Sudeste 10 Sudeste 0 -- -- 63
2019-08-13 02:00:00 18 4 Sudeste 9 Sudoeste 0 -- -- 66
2019-08-13 01:00:00 18.8 3 Sudoeste 13 Sudoeste 0 -- -- 82
2019-08-13 00:00:00 19.4 9 Oeste 15 Oeste 0 -- -- 79
2019-08-12 23:00:00 20.9 6 Sudoeste 14 Sudoeste 0 -- -- 71
2019-08-12 22:00:00 21.4 4 Nordeste 24 Oeste 0 -- -- 54
2019-08-12 21:00:00 22.8 13 Sudoeste 34 Sudoeste 0 -- -- 39
2019-08-12 20:00:00 24.6 21 Oeste 38 Sudoeste 0 -- -- 33
2019-08-12 19:00:00 25.1 20 Oeste 36 Oeste 0 -- -- 36
2019-08-12 18:00:00 25.5 20 Oeste 42 Sudoeste 0 -- -- 40
2019-08-12 17:00:00 27.2 23 Oeste 39 Sudoeste 0 -- -- 37
2019-08-12 16:00:00 27.5 22 Sudoeste 36 Sudoeste 0 -- -- 38
2019-08-12 15:00:00 26.7 16 Sudoeste 35 Oeste 0 -- -- 43
2019-08-12 14:00:00 25.6 15 Sudoeste 30 Sudoeste 0 -- -- 50
2019-08-12 13:00:00 25 12 Sudoeste 27 Sudoeste 0 -- -- 54
2019-08-12 12:00:00 22.9 6 Sudeste 15 Sur 0 -- -- 59
2019-08-12 11:00:00 19.9 5 Sur 10 Sudoeste 0 -- -- 72
2019-08-12 10:00:00 18.9 5 Sur 10 Sudoeste 0 -- -- 88
2019-08-12 09:00:00 19.1 4 Sudoeste 9 Sudoeste 0 -- -- 88
2019-08-12 08:00:00 19.2 3 Sudoeste 10 Sudoeste 0 -- -- 87
2019-08-12 07:00:00 19.5 3 Este 9 Oeste 0 -- -- 86
2019-08-12 06:00:00 19.4 5 Sur 18 Sudoeste 0 -- -- 87
2019-08-12 05:00:00 20.1 5 Oeste 12 Sudoeste 0 -- -- 86
2019-08-12 04:00:00 20.5 4 Sudoeste 10 Sudoeste 0.2 -- -- 87
2019-08-12 03:00:00 21.4 5 Sudoeste 16 Sudoeste 0 -- -- 83
2019-08-12 02:00:00 21.9 3 Sudoeste 11 Oeste 0 -- -- 78
2019-08-12 01:00:00 21.9 7 Oeste 11 Oeste 0 -- -- 73
2019-08-12 00:00:00 23.4 3 Sudoeste 12 Este 0 -- -- 69
2019-08-11 23:00:00 24.5 5 Sudeste 11 Sudeste 0 -- -- 61
2019-08-11 22:00:00 25 5 Este 19 Sudeste 0 -- -- 59
2019-08-11 21:00:00 26.4 4 Sudoeste 15 Oeste 0 -- -- 56
2019-08-11 20:00:00 27.4 9 Sudoeste 17 Sudoeste 0 -- -- 52
2019-08-11 19:00:00 28 9 Sudoeste 21 Oeste 0 -- -- 48
2019-08-11 18:00:00 28.6 13 Oeste 28 Sudoeste 0 -- -- 46
2019-08-11 17:00:00 29 17 Oeste 38 Oeste 0 -- -- 43
2019-08-11 16:00:00 31.7 23 Oeste 43 Sudoeste 0 -- -- 37
2019-08-11 15:00:00 31.4 25 Sudoeste 45 Sudoeste 0 -- -- 40
2019-08-11 14:00:00 30.5 16 Sudoeste 30 Sudoeste 0 -- -- 42
2019-08-11 13:00:00 29.1 19 Oeste 36 Sudoeste 0 -- -- 45
2019-08-11 12:00:00 27.7 16 Sudoeste 28 Oeste 0 -- -- 49
2019-08-11 11:00:00 26 13 Sudoeste 25 Sudoeste 0 -- -- 55
2019-08-11 10:00:00 24.7 12 Sudoeste 17 Oeste 0 -- -- 60
2019-08-11 09:00:00 21.5 4 Este 8 Este 0 -- -- 74
2019-08-11 08:00:00 19.4 7 Este 12 Este 0 -- -- 80
2019-08-11 07:00:00 19.1 5 Nordeste 12 Este 0 -- -- 81
2019-08-11 06:00:00 19.5 5 Este 9 Este 0 -- -- 80
2019-08-11 05:00:00 20 4 Nordeste 9 Este 0 -- -- 77
2019-08-11 04:00:00 20.5 5 Este 10 Este 0 -- -- 76
2019-08-11 03:00:00 21.2 4 Este 6 Este 0 -- -- 73
2019-08-11 02:00:00 22.7 3 Sudeste 6 Este 0 -- -- 68
2019-08-11 01:00:00 23.5 2 Sudeste 8 Norte 0 -- -- 64
2019-08-11 00:00:00 24.3 3 Nordeste 5 Nordeste 0 -- -- 62
2019-08-10 23:00:00 25.2 3 Oeste 7 Sudoeste 0 -- -- 64
2019-08-10 22:00:00 26.3 3 Sudoeste 15 Sudoeste 0 -- -- 59
2019-08-10 21:00:00 27.5 9 Sudoeste 22 Sudoeste 0 -- -- 57
2019-08-10 20:00:00 30.4 14 Sudoeste 33 Oeste 0 -- -- 46
2019-08-10 19:00:00 31.8 18 Sudoeste 38 Oeste 0 -- -- 32
2019-08-10 18:00:00 32.1 22 Oeste 41 Sudoeste 0 -- -- 32
2019-08-10 17:00:00 32.1 21 Sudoeste 39 Sudoeste 0 -- -- 33
2019-08-10 16:00:00 32.2 26 Sudoeste 42 Sudoeste 0 -- -- 34
2019-08-10 15:00:00 32 23 Oeste 42 Sudoeste 0 -- -- 35
2019-08-10 14:00:00 31.3 23 Sudoeste 41 Sudoeste 0 -- -- 37
2019-08-10 13:00:00 30.7 23 Sudoeste 36 Sudoeste 0 -- -- 39
2019-08-10 12:00:00 29.6 11 Sudoeste 26 Sudoeste 0 -- -- 43
2019-08-10 11:00:00 27.4 8 Sudoeste 17 Sudoeste 0 -- -- 51
2019-08-10 10:00:00 24.6 8 Sudoeste 15 Oeste 0 -- -- 59
2019-08-10 09:00:00 22.3 3 Sudoeste 8 Sudoeste 0 -- -- 65
2019-08-10 08:00:00 20.5 3 Este 6 Este 0 -- -- 66
2019-08-10 07:00:00 20.2 4 Nordeste 10 Este 0 -- -- 66
2019-08-10 06:00:00 20.6 6 Este 14 Este 0 -- -- 65
2019-08-10 05:00:00 21.4 6 Este 13 Este 0 -- -- 61
2019-08-10 04:00:00 22 7 Este 15 Este 0 -- -- 59
2019-08-10 03:00:00 22.5 7 Este 12 Este 0 -- -- 58
2019-08-10 02:00:00 23.8 5 Nordeste 12 Sudeste 0 -- -- 54
2019-08-10 01:00:00 24.5 6 Este 11 Este 0 -- -- 54
2019-08-10 00:00:00 25.5 5 Este 10 Este 0 -- -- 54
2019-08-09 23:00:00 27.2 2 Este 8 Sur 0 -- -- 50
2019-08-09 22:00:00 28.6 5 Sudoeste 15 Sur 0 -- -- 47
2019-08-09 21:00:00 31 2 Oeste 22 Oeste 0 -- -- 32
2019-08-09 20:00:00 33.4 18 Oeste 38 Oeste 0 -- -- 27
2019-08-09 19:00:00 34.5 21 Oeste 41 Oeste 0 -- -- 25
2019-08-09 18:00:00 35.1 27 Sudoeste 43 Sudoeste 0 -- -- 23
2019-08-09 17:00:00 35.6 25 Sudoeste 48 Sudoeste 0 -- -- 23
2019-08-09 16:00:00 35.4 29 Oeste 51 Sudoeste 0 -- -- 25
2019-08-09 15:00:00 35.2 25 Oeste 42 Sudoeste 0 -- -- 25
2019-08-09 14:00:00 34.6 28 Oeste 47 Oeste 0 -- -- 25
2019-08-09 13:00:00 34.1 25 Oeste 41 Sudoeste 0 -- -- 27
2019-08-09 12:00:00 32 9 Sudoeste 19 Sudoeste 0 -- -- 39
2019-08-09 11:00:00 29.1 8 Sudoeste 16 Sudoeste 0 -- -- 48
2019-08-09 10:00:00 26 6 Sudoeste 10 Sudoeste 0 -- -- 56
2019-08-09 09:00:00 22.4 6 Este 13 Este 0 -- -- 64
2019-08-09 08:00:00 19.9 8 Este 14 Este 0 -- -- 73
2019-08-09 07:00:00 19.2 6 Este 12 Nordeste 0 -- -- 76
2019-08-09 06:00:00 19.9 7 Este 12 Este 0 -- -- 73
2019-08-09 05:00:00 20.2 6 Nordeste 12 Nordeste 0 -- -- 74
2019-08-09 04:00:00 20.8 4 Este 10 Nordeste 0 -- -- 72
2019-08-09 03:00:00 21.6 5 Este 11 Este 0 -- -- 70
2019-08-09 02:00:00 22.1 6 Este 12 Este 0 -- -- 70
2019-08-09 01:00:00 22.8 6 Este 8 Este 0 -- -- 69
2019-08-09 00:00:00 24.4 3 Sudeste 5 Sudeste 0 -- -- 62
2019-08-08 23:00:00 25.2 2 Este 8 Sudeste 0 -- -- 61
2019-08-08 22:00:00 26.2 4 Este 17 Sudoeste 0 -- -- 60
2019-08-08 21:00:00 28 11 Sudoeste 29 Sudoeste 0 -- -- 54
2019-08-08 20:00:00 29.7 24 Oeste 36 Oeste 0 -- -- 41
2019-08-08 19:00:00 30.5 23 Oeste 38 Oeste 0 -- -- 39
2019-08-08 18:00:00 31.6 20 Oeste 36 Oeste 0 -- -- 39
2019-08-08 17:00:00 32.7 23 Oeste 42 Sudoeste 0 -- -- 35
2019-08-08 16:00:00 32.7 26 Sudoeste 43 Sudoeste 0 -- -- 35
2019-08-08 15:00:00 32.2 24 Sudoeste 37 Sudoeste 0 -- -- 36
2019-08-08 14:00:00 31.4 21 Sudoeste 34 Oeste 0 -- -- 37
2019-08-08 13:00:00 30.5 19 Sudoeste 34 Sudoeste 0 -- -- 37
2019-08-08 12:00:00 29.5 23 Sudoeste 36 Sudoeste 0 -- -- 38
2019-08-08 11:00:00 26.9 8 Oeste 15 Oeste 0 -- -- 59
2019-08-08 10:00:00 24.2 2 Norte 8 Noroeste 0 -- -- 66
2019-08-08 09:00:00 21.2 2 Oeste 12 Este 0 -- -- 74
2019-08-08 08:00:00 19.6 5 Este 11 Este 0 -- -- 80
2019-08-08 07:00:00 19.4 5 Este 9 Este 0 -- -- 85
2019-08-08 06:00:00 19.9 3 Este 9 Este 0 -- -- 83
2019-08-08 05:00:00 20.2 4 Este 9 Este 0 -- -- 83
2019-08-08 04:00:00 20.9 4 Este 6 Este 0 -- -- 83
2019-08-08 03:00:00 21.4 3 Este 6 Este 0 -- -- 85
2019-08-08 02:00:00 22.2 3 Sudoeste 5 Sudoeste 0 -- -- 84
2019-08-08 01:00:00 22.4 3 Sudoeste 9 Sur 0 -- -- 84
2019-08-08 00:00:00 22.9 3 Oeste 5 Oeste 0 -- -- 83
2019-08-07 23:00:00 23.2 5 Sudoeste 13 Sudoeste 0 -- -- 79
2019-08-07 22:00:00 24.2 6 Sur 13 Sudoeste 0 -- -- 75
2019-08-07 21:00:00 25.1 4 Sudoeste 15 Oeste 0 -- -- 73
2019-08-07 20:00:00 26 4 Sudoeste 14 Nordeste 0 -- -- 69
2019-08-07 19:00:00 26.3 8 Sur 18 Sudoeste 0 -- -- 69
2019-08-07 18:00:00 27.5 8 Sudoeste 33 Sudoeste 0 -- -- 64
2019-08-07 17:00:00 28.8 11 Sudoeste 30 Sudoeste 0 -- -- 56
2019-08-07 16:00:00 30.2 16 Sudoeste 33 Oeste 0 -- -- 44
2019-08-07 15:00:00 30.1 15 Sudoeste 27 Oeste 0 -- -- 47
2019-08-07 14:00:00 29.3 14 Oeste 26 Sudoeste 0 -- -- 49
2019-08-07 13:00:00 28.9 13 Oeste 28 Sudoeste 0 -- -- 53
2019-08-07 12:00:00 28.1 8 Sudoeste 21 Sudoeste 0 -- -- 55
2019-08-07 11:00:00 25.6 8 Sudoeste 13 Oeste 0 -- -- 68
2019-08-07 10:00:00 23.8 4 Sudoeste 10 Sudoeste 0 -- -- 74
2019-08-07 09:00:00 21.5 3 Este 9 Este 0 -- -- 78
2019-08-07 08:00:00 19.8 5 Este 9 Este 0 -- -- 87
2019-08-07 07:00:00 20.3 4 Nordeste 6 Este 0 -- -- 85
2019-08-07 06:00:00 20.9 0 Calma 7 Este 0 -- -- 84
2019-08-07 05:00:00 21.1 4 Oeste 7 Oeste 0 -- -- 80
2019-08-07 04:00:00 22.2 3 Este 7 Sur 0 -- -- 74
2019-08-07 03:00:00 22.7 3 Este 8 Sudeste 0 -- -- 71
2019-08-07 02:00:00 23 7 Este 19 Este 0 -- -- 70
2019-08-07 01:00:00 23.3 4 Este 7 Este 0 -- -- 74
2019-08-07 00:00:00 24.4 2 Oeste 6 Sudoeste 0 -- -- 71
2019-08-06 23:00:00 25.7 3 Sur 6 Sudeste 0 -- -- 66
2019-08-06 22:00:00 26.2 6 Sudoeste 13 Oeste 0 -- -- 63
2019-08-06 21:00:00 28.2 8 Sudoeste 17 Sudoeste 0 -- -- 55
2019-08-06 20:00:00 31.1 9 Sudoeste 24 Sudoeste 0 -- -- 45
2019-08-06 19:00:00 31.8 15 Sudoeste 25 Sudoeste 0 -- -- 41
2019-08-06 18:00:00 32.4 10 Sudoeste 27 Sudoeste 0 -- -- 37
2019-08-06 17:00:00 33.1 17 Sudoeste 31 Sudoeste 0 -- -- 36
2019-08-06 16:00:00 32.5 8 Sur 32 Sudoeste 0 -- -- 35
2019-08-06 15:00:00 32.6 13 Sudoeste 28 Sudoeste 0 -- -- 35
2019-08-06 14:00:00 31.8 13 Sudoeste 26 Sudoeste 0 -- -- 35
2019-08-06 13:00:00 31.3 10 Sudoeste 21 Oeste 0 -- -- 38
2019-08-06 12:00:00 30 10 Oeste 18 Oeste 0 -- -- 41
2019-08-06 11:00:00 28.4 8 Oeste 16 Oeste 0 -- -- 48
2019-08-06 10:00:00 26.3 5 Sudoeste 12 Este 0 -- -- 51
2019-08-06 09:00:00 23.1 5 Nordeste 18 Este 0 -- -- 55
2019-08-06 08:00:00 21.9 11 Este 24 Sudeste 0 -- -- 56
2019-08-06 07:00:00 21.3 13 Nordeste 22 Nordeste 0 -- -- 58
2019-08-06 06:00:00 20.9 12 Nordeste 21 Nordeste 0 -- -- 60
2019-08-06 05:00:00 20.1 6 Este 14 Este 0 -- -- 65
2019-08-06 04:00:00 20.5 7 Este 14 Este 0 -- -- 63
2019-08-06 03:00:00 21 6 Este 19 Este 0 -- -- 62
2019-08-06 02:00:00 22.3 10 Este 19 Este 0 -- -- 57
2019-08-06 01:00:00 22.6 7 Nordeste 16 Nordeste 0 -- -- 57
2019-08-06 00:00:00 23.4 10 Este 18 Este 0 -- -- 54
2019-08-05 23:00:00 24.4 4 Nordeste 6 Este 0 -- -- 51
2019-08-05 22:00:00 25.3 2 Noroeste 10 Oeste 0 -- -- 48
2019-08-05 21:00:00 26.7 7 Oeste 18 Sudoeste 0 -- -- 45
2019-08-05 20:00:00 29.2 14 Sudoeste 26 Sudoeste 0 -- -- 41
2019-08-05 19:00:00 31.2 15 Sudoeste 28 Oeste 0 -- -- 35
2019-08-05 18:00:00 32.5 17 Sudoeste 32 Oeste 0 -- -- 33
2019-08-05 17:00:00 33.3 13 Sudoeste 26 Sudoeste 0 -- -- 31
2019-08-05 16:00:00 33.1 12 Sudoeste 25 Sudoeste 0 -- -- 32
2019-08-05 15:00:00 32.4 13 Oeste 30 Sudoeste 0 -- -- 35
2019-08-05 14:00:00 31.7 12 Sudoeste 24 Sudoeste 0 -- -- 34
2019-08-05 13:00:00 30.8 6 Sudoeste 20 Sudoeste 0 -- -- 36
2019-08-05 12:00:00 29.8 7 Sur 19 Sudoeste 0 -- -- 35
2019-08-05 11:00:00 28.1 10 Sudoeste 14 Sudoeste 0 -- -- 39
2019-08-05 10:00:00 25.1 5 Este 12 Este 0 -- -- 55
2019-08-05 09:00:00 21.5 6 Este 17 Este 0 -- -- 67
2019-08-05 08:00:00 19.3 9 Este 17 Este 0 -- -- 74
2019-08-05 07:00:00 19.6 12 Nordeste 21 Nordeste 0 -- -- 70
2019-08-05 06:00:00 19.1 8 Este 13 Este 0 -- -- 74
2019-08-05 05:00:00 19.2 7 Este 14 Nordeste 0 -- -- 76
2019-08-05 04:00:00 19.2 8 Este 13 Este 0 -- -- 76
2019-08-05 03:00:00 20 6 Este 11 Este 0 -- -- 74
2019-08-05 02:00:00 20.8 6 Este 10 Este 0 -- -- 71
2019-08-05 01:00:00 21.6 6 Este 10 Este 0 -- -- 68
2019-08-05 00:00:00 22.6 5 Nordeste 8 Nordeste 0 -- -- 64
2019-08-04 23:00:00 24 3 Este 5 Este 0 -- -- 59
2019-08-04 22:00:00 25.2 3 Este 8 Sur 0 -- -- 55
2019-08-04 21:00:00 26.5 5 Sudoeste 10 Oeste 0 -- -- 52
2019-08-04 20:00:00 27.9 8 Oeste 18 Sudoeste 0 -- -- 49
2019-08-04 19:00:00 28.2 11 Sudoeste 26 Sudoeste 0 -- -- 49
2019-08-04 18:00:00 28.6 18 Oeste 36 Sudoeste 0 -- -- 50
2019-08-04 17:00:00 32.8 15 Sudoeste 32 Sudoeste 0 -- -- 39
2019-08-04 16:00:00 33.3 12 Sudoeste 28 Sudoeste 0 -- -- 33
2019-08-04 15:00:00 32.8 13 Sudoeste 29 Sudoeste 0 -- -- 33
2019-08-04 14:00:00 31.8 10 Oeste 28 Oeste 0 -- -- 34
2019-08-04 13:00:00 31.2 12 Sudoeste 18 Sudoeste 0 -- -- 36
2019-08-04 12:00:00 29.9 10 Oeste 16 Sudoeste 0 -- -- 41
2019-08-04 11:00:00 28.2 7 Sudoeste 13 Sudoeste 0 -- -- 45
2019-08-04 10:00:00 24.9 5 Este 11 Este 0 -- -- 51
2019-08-04 09:00:00 21.3 4 Este 18 Nordeste 0 -- -- 62
2019-08-04 08:00:00 18.9 10 Nordeste 19 Nordeste 0 -- -- 69
2019-08-04 07:00:00 18.1 8 Este 16 Este 0 -- -- 71
2019-08-04 06:00:00 18.3 9 Este 15 Este 0 -- -- 71
2019-08-04 05:00:00 18.5 7 Este 14 Este 0 -- -- 71
2019-08-04 04:00:00 18 8 Este 12 Nordeste 0 -- -- 73
2019-08-04 03:00:00 19.1 5 Este 9 Este 0 -- -- 68
2019-08-04 02:00:00 19.8 5 Este 8 Este 0 -- -- 65
2019-08-04 01:00:00 21.1 2 Nordeste 6 Este 0 -- -- 60
2019-08-04 00:00:00 22.7 2 Norte 6 Nordeste 0 -- -- 54
2019-08-03 23:00:00 23.5 3 Nordeste 10 Norte 0 -- -- 51
2019-08-03 22:00:00 24.8 4 Oeste 6 Oeste 0 -- -- 47
2019-08-03 21:00:00 25.8 5 Oeste 14 Sudoeste 0 -- -- 46
2019-08-03 20:00:00 28 10 Sudoeste 24 Sudoeste 0 -- -- 40
2019-08-03 19:00:00 29.6 14 Sudoeste 30 Sudoeste 0 -- -- 38
2019-08-03 18:00:00 30.5 20 Sudoeste 30 Sudoeste 0 -- -- 37
2019-08-03 17:00:00 30.3 17 Sudoeste 36 Sudoeste 0 -- -- 38
2019-08-03 16:00:00 31.7 16 Sudoeste 37 Oeste 0 -- -- 34
2019-08-03 15:00:00 31.8 12 Sudoeste 29 Sudoeste 0 -- -- 34
2019-08-03 14:00:00 30.9 11 Sudoeste 24 Sudoeste 0 -- -- 35
2019-08-03 13:00:00 29.5 8 Sudoeste 20 Sudoeste 0 -- -- 39
2019-08-03 12:00:00 27.9 5 Sudoeste 15 Sudoeste 0 -- -- 40
2019-08-03 11:00:00 25.8 5 Sudoeste 14 Oeste 0 -- -- 47
2019-08-03 10:00:00 23.2 5 Sudoeste 11 Sudeste 0 -- -- 56
2019-08-03 09:00:00 19.9 9 Este 16 Este 0 -- -- 65
2019-08-03 08:00:00 16.9 8 Este 15 Nordeste 0 -- -- 78
2019-08-03 07:00:00 16.1 6 Este 10 Nordeste 0 -- -- 79
2019-08-03 06:00:00 17.3 5 Este 13 Este 0 -- -- 74
2019-08-03 05:00:00 18.1 9 Este 22 Nordeste 0 -- -- 71
2019-08-03 04:00:00 18.1 12 Nordeste 21 Nordeste 0 -- -- 71
2019-08-03 03:00:00 17.8 6 Este 11 Este 0 -- -- 72
2019-08-03 02:00:00 18.7 6 Este 12 Este 0 -- -- 68
2019-08-03 01:00:00 19.4 4 Este 8 Nordeste 0 -- -- 66
2019-08-03 00:00:00 21 3 Este 6 Este 0 -- -- 60
2019-08-02 23:00:00 22 0 Calma 8 Oeste 0 -- -- 56
2019-08-02 22:00:00 23 5 Sudoeste 12 Oeste 0 -- -- 52
2019-08-02 21:00:00 24 7 Oeste 16 Sudoeste 0 -- -- 49
2019-08-02 20:00:00 25.4 9 Oeste 18 Sudoeste 0 -- -- 45
2019-08-02 19:00:00 27.6 8 Sudoeste 37 Sudoeste 0 -- -- 40
2019-08-02 18:00:00 30.2 19 Sudoeste 41 Oeste 0 -- -- 35
2019-08-02 17:00:00 31.6 27 Oeste 48 Oeste 0 -- -- 31
2019-08-02 16:00:00 31.9 26 Oeste 54 Sudoeste 0 -- -- 32
2019-08-02 15:00:00 31.8 30 Oeste 41 Oeste 0 -- -- 31
2019-08-02 14:00:00 31.1 17 Sudoeste 30 Sudoeste 0 -- -- 37
2019-08-02 13:00:00 29.6 13 Sudoeste 23 Sudoeste 0 -- -- 39
2019-08-02 12:00:00 27.6 6 Sur 15 Sudoeste 0 -- -- 40
2019-08-02 11:00:00 25.8 8 Oeste 14 Sudoeste 0 -- -- 45
2019-08-02 10:00:00 22.8 5 Sudoeste 10 Este 0 -- -- 52
2019-08-02 09:00:00 19.6 6 Este 12 Sudeste 0 -- -- 64
2019-08-02 08:00:00 17.9 2 Nordeste 10 Este 0 -- -- 73
2019-08-02 07:00:00 17.5 5 Este 13 Este 0 -- -- 73
2019-08-02 06:00:00 18 5 Este 9 Este 0 -- -- 71
2019-08-02 05:00:00 18.3 6 Nordeste 12 Nordeste 0 -- -- 69
2019-08-02 04:00:00 18.3 4 Este 10 Este 0 -- -- 67
2019-08-02 03:00:00 19.4 4 Sudeste 19 Este 0 -- -- 59
2019-08-02 02:00:00 19.4 3 Nordeste 9 Este 0 -- -- 58
2019-08-02 01:00:00 20 3 Este 8 Sur 0 -- -- 58
2019-08-02 00:00:00 20.9 5 Este 10 Este 0 -- -- 55
2019-08-01 23:00:00 22.1 5 Nordeste 8 Nordeste 0 -- -- 50
2019-08-01 22:00:00 23.6 4 Este 10 Sudoeste 0 -- -- 44
2019-08-01 21:00:00 25 9 Oeste 15 Sudoeste 0 -- -- 40
2019-08-01 20:00:00 27.9 8 Oeste 23 Oeste 0 -- -- 37
2019-08-01 19:00:00 29.1 18 Sudoeste 30 Sudoeste 0 -- -- 34
2019-08-01 18:00:00 30.6 9 Sudoeste 24 Oeste 0 -- -- 31
2019-08-01 17:00:00 30.7 12 Sudoeste 22 Oeste 0 -- -- 32
2019-08-01 16:00:00 30.8 15 Oeste 23 Sudoeste 0 -- -- 30
2019-08-01 15:00:00 30.5 12 Sudoeste 23 Sudoeste 0 -- -- 32
2019-08-01 14:00:00 29.6 11 Sudoeste 24 Sudoeste 0 -- -- 30
2019-08-01 13:00:00 29 8 Sudoeste 23 Sudoeste 0 -- -- 33
2019-08-01 12:00:00 27.7 6 Sur 18 Sudoeste 0 -- -- 38
2019-08-01 11:00:00 26 12 Sudoeste 24 Sudoeste 0 -- -- 55
2019-08-01 10:00:00 24.3 6 Sudoeste 15 Sudoeste 0 -- -- 64
2019-08-01 09:00:00 22 7 Nordeste 19 Este 0 -- -- 69
2019-08-01 08:00:00 20.5 15 Nordeste 27 Nordeste 0 -- -- 74
2019-08-01 07:00:00 19.2 15 Nordeste 24 Este 0 -- -- 79
2019-08-01 06:00:00 18.8 10 Nordeste 17 Este 0 -- -- 82
2019-08-01 05:00:00 18.8 8 Este 18 Nordeste 0 -- -- 83
2019-08-01 04:00:00 19.2 5 Nordeste 15 Este 0 -- -- 82
2019-08-01 03:00:00 19.6 6 Este 14 Este 0 -- -- 81
2019-08-01 02:00:00 19.4 4 Este 9 Este 0 -- -- 85
2019-08-01 01:00:00 20.1 5 Sur 8 Sudoeste 0 -- -- 80
2019-08-01 00:00:00 20.6 4 Sudoeste 8 Sudoeste 0 -- -- 77
2019-07-31 23:00:00 21.4 2 Sudoeste 10 Sudoeste 0 -- -- 74
2019-07-31 22:00:00 22.4 5 Sur 10 Sudoeste 0 -- -- 70
2019-07-31 21:00:00 23.5 4 Sudoeste 15 Oeste 0 -- -- 66
2019-07-31 20:00:00 24.4 10 Sudoeste 29 Sudoeste 0 -- -- 63
2019-07-31 19:00:00 26.1 13 Sudoeste 27 Sudoeste 0 -- -- 57
2019-07-31 18:00:00 27.3 17 Sudoeste 27 Sudoeste 0 -- -- 53
2019-07-31 17:00:00 28 11 Sudoeste 32 Sudoeste 0 -- -- 49
2019-07-31 16:00:00 28.9 13 Sudoeste 31 Sudoeste 0 -- -- 45
2019-07-31 15:00:00 28.6 15 Sudoeste 31 Sudoeste 0 -- -- 36
2019-07-31 14:00:00 28.4 13 Sudoeste 31 Sudoeste 0 -- -- 34
2019-07-31 13:00:00 26.6 5 Sur 17 Sudoeste 0 -- -- 37
2019-07-31 12:00:00 24.5 5 Sudeste 16 Oeste 0 -- -- 43
2019-07-31 11:00:00 21.9 6 Sudoeste 15 Sudoeste 0 -- -- 54
2019-07-31 10:00:00 19.6 3 Sudoeste 13 Sudoeste 0 -- -- 72
2019-07-31 09:00:00 17.7 6 Sudoeste 10 Sudoeste 0 -- -- 74
2019-07-31 08:00:00 17 4 Sudoeste 6 Sudoeste 0 -- -- 80
2019-07-31 07:00:00 17.6 4 Sudoeste 8 Sur 0 -- -- 88
2019-07-31 06:00:00 18.1 4 Sudoeste 6 Oeste 0 -- -- 87
2019-07-31 05:00:00 18.8 5 Este 8 Este 0 -- -- 86
2019-07-31 04:00:00 19.4 5 Sudoeste 13 Sur 0 -- -- 89
2019-07-31 03:00:00 19.6 6 Sudoeste 12 Sur 0 -- -- 89
2019-07-31 02:00:00 19.9 7 Sudoeste 10 Sur 0 -- -- 87
2019-07-31 01:00:00 20.1 6 Sudoeste 13 Sudoeste 0 -- -- 86
2019-07-31 00:00:00 20.7 8 Sudoeste 17 Sudoeste 0 -- -- 84
2019-07-30 23:00:00 21 12 Sudoeste 24 Oeste 0 -- -- 83
2019-07-30 22:00:00 21.9 15 Sudoeste 33 Oeste 0 -- -- 78
2019-07-30 21:00:00 23.4 16 Sudoeste 27 Sudoeste 0 -- -- 71
2019-07-30 20:00:00 26.3 14 Sudoeste 29 Sudoeste 0 -- -- 58
2019-07-30 19:00:00 27.5 18 Sudoeste 34 Sudoeste 0 -- -- 38
2019-07-30 18:00:00 28.1 21 Oeste 39 Sudoeste 0 -- -- 38
2019-07-30 17:00:00 28.3 22 Sudoeste 36 Sudoeste 0 -- -- 38
2019-07-30 16:00:00 28.3 26 Sudoeste 37 Oeste 0 -- -- 41
2019-07-30 15:00:00 27.9 19 Sudoeste 37 Oeste 0 -- -- 45
2019-07-30 14:00:00 27.3 17 Sudoeste 28 Oeste 0 -- -- 52
2019-07-30 13:00:00 25.9 16 Oeste 26 Sudoeste 0 -- -- 56
2019-07-30 12:00:00 24.9 11 Sudoeste 21 Sudoeste 0 -- -- 60
2019-07-30 11:00:00 24.2 3 Sur 13 Sur 0 -- -- 63
2019-07-30 10:00:00 22.9 5 Oeste 17 Oeste 0 -- -- 66
2019-07-30 09:00:00 21 3 Este 9 Este 0 -- -- 72
2019-07-30 08:00:00 19.3 5 Este 14 Nordeste 0 -- -- 80
2019-07-30 07:00:00 19.1 10 Nordeste 17 Este 0 -- -- 80
2019-07-30 06:00:00 19.1 6 Este 12 Nordeste 0 -- -- 81
2019-07-30 05:00:00 19.8 8 Este 14 Este 0 -- -- 80
2019-07-30 04:00:00 19.8 7 Este 13 Este 0 -- -- 80
2019-07-30 03:00:00 20.3 6 Este 13 Nordeste 0 -- -- 77
2019-07-30 02:00:00 20.8 5 Este 12 Nordeste 0 -- -- 74
2019-07-30 01:00:00 21.5 6 Este 9 Este 0 -- -- 71
2019-07-30 00:00:00 22.4 4 Este 8 Nordeste 0 -- -- 69
2019-07-29 23:00:00 23.3 3 Nordeste 8 Oeste 0 -- -- 67
2019-07-29 22:00:00 24.2 3 Oeste 17 Sudoeste 0 -- -- 64
2019-07-29 21:00:00 26.2 11 Sudoeste 22 Sudoeste 0 -- -- 54
2019-07-29 20:00:00 29.5 15 Oeste 27 Sudoeste 0 -- -- 30
2019-07-29 19:00:00 30 17 Oeste 32 Sudoeste 0 -- -- 31
2019-07-29 18:00:00 30.2 22 Oeste 38 Oeste 0 -- -- 30
2019-07-29 17:00:00 30.4 21 Sudoeste 36 Sudoeste 0 -- -- 30
2019-07-29 16:00:00 30.2 22 Sudoeste 40 Oeste 0 -- -- 29
2019-07-29 15:00:00 29.4 19 Sudoeste 38 Sudoeste 0 -- -- 28
2019-07-29 14:00:00 28.6 22 Sudoeste 40 Sudoeste 0 -- -- 28
2019-07-29 13:00:00 27.8 18 Sudoeste 28 Sudoeste 0 -- -- 31
2019-07-29 12:00:00 24.8 4 Sur 12 Sudoeste 0 -- -- 48
2019-07-29 11:00:00 22.2 6 Oeste 14 Sur 0 -- -- 60
2019-07-29 10:00:00 19.9 3 Este 8 Este 0 -- -- 67
2019-07-29 09:00:00 16.6 4 Este 11 Este 0 -- -- 76
2019-07-29 08:00:00 14.4 5 Este 11 Nordeste 0 -- -- 84
2019-07-29 07:00:00 13.8 6 Este 12 Este 0 -- -- 85
2019-07-29 06:00:00 14.3 6 Este 12 Este 0 -- -- 82
2019-07-29 05:00:00 14.7 5 Este 10 Este 0 -- -- 81
2019-07-29 04:00:00 15.1 6 Este 12 Este 0 -- -- 79
2019-07-29 03:00:00 15.9 6 Este 10 Nordeste 0 -- -- 77
2019-07-29 02:00:00 16.6 5 Este 9 Nordeste 0 -- -- 76
2019-07-29 01:00:00 17.5 3 Este 7 Este 0 -- -- 72
2019-07-29 00:00:00 18.6 3 Norte 8 Norte 0 -- -- 65
2019-07-28 23:00:00 19.2 4 Sudoeste 14 Oeste 0 -- -- 63
2019-07-28 22:00:00 20.7 6 Sudoeste 17 Sudoeste 0 -- -- 56
2019-07-28 21:00:00 22.4 10 Sudoeste 23 Oeste 0 -- -- 53
2019-07-28 20:00:00 24.7 17 Oeste 35 Oeste 0 -- -- 38
2019-07-28 19:00:00 25.8 18 Oeste 33 Sudoeste 0 -- -- 37
2019-07-28 18:00:00 26.3 19 Sudoeste 33 Oeste 0 -- -- 39
2019-07-28 17:00:00 26 17 Oeste 32 Sudoeste 0 -- -- 39
2019-07-28 16:00:00 26 15 Oeste 32 Sudoeste 0 -- -- 39
2019-07-28 15:00:00 24.9 13 Sudoeste 27 Sudoeste 0 -- -- 38
2019-07-28 14:00:00 24.8 13 Sudoeste 24 Sudoeste 0 -- -- 39
2019-07-28 13:00:00 24.1 10 Sudoeste 22 Sudoeste 0 -- -- 41
2019-07-28 12:00:00 22.7 9 Sudoeste 18 Sudoeste 0 -- -- 45
2019-07-28 11:00:00 19.9 12 Sudoeste 20 Sudoeste 0 -- -- 61
2019-07-28 10:00:00 17.2 6 Sudoeste 10 Sudoeste 0 -- -- 70
2019-07-28 09:00:00 13.7 6 Sudoeste 13 Sudoeste 0 -- -- 85
2019-07-28 08:00:00 12.5 5 Sudoeste 9 Sudoeste 0 -- -- 86
2019-07-28 07:00:00 12.2 3 Este 14 Sudoeste 0 -- -- 86
2019-07-28 06:00:00 13.7 10 Sudoeste 17 Oeste 0 -- -- 80
2019-07-28 05:00:00 13.9 4 Noroeste 14 Sudoeste 0 -- -- 80
2019-07-28 04:00:00 14.3 9 Este 14 Este 0 -- -- 74
2019-07-28 03:00:00 15.2 0 Calma 16 Nordeste 0 -- -- 73
2019-07-28 02:00:00 15.2 9 Este 19 Nordeste 0 -- -- 77
2019-07-28 01:00:00 16.4 4 Este 13 Este 0 -- -- 75
2019-07-28 00:00:00 17.3 6 Este 14 Sudeste 0 -- -- 68
2019-07-27 23:00:00 18.2 6 Nordeste 25 Nordeste 0 -- -- 64
2019-07-26 12:00:00 -- -- -- -- -- -- -- -- --
2019-07-26 11:00:00 26.3 4 Sudoeste 10 Sudoeste 0 -- -- 46
2019-07-26 10:00:00 25 5 Oeste 8 Noroeste 0 -- -- 53
2019-07-26 09:00:00 22 6 Este 11 Este 0 -- -- 59
2019-07-26 08:00:00 20.2 6 Este 13 Este 0 -- -- 63
2019-07-26 07:00:00 18.6 6 Este 16 Este 0 -- -- 69
2019-07-26 06:00:00 18.5 6 Este 14 Este 0 -- -- 69
2019-07-26 05:00:00 18.8 7 Este 15 Este 0 -- -- 68
2019-07-26 04:00:00 19.2 6 Este 12 Este 0 -- -- 68
2019-07-26 03:00:00 19.7 6 Este 11 Este 0 -- -- 67
2019-07-26 02:00:00 20.8 6 Este 14 Este 0 -- -- 63
2019-07-26 01:00:00 21.3 6 Este 9 Este 0 -- -- 64
2019-07-26 00:00:00 23.5 0 Calma 8 Este 0 -- -- 56
2019-07-25 23:00:00 24.4 2 Oeste 6 Oeste 0 -- -- 53
2019-07-25 22:00:00 25.6 6 Sudoeste 9 Sur 0 -- -- 49
2019-07-25 21:00:00 27.3 5 Sudoeste 18 Sudoeste 0 -- -- 44
2019-07-25 20:00:00 29.6 12 Sudoeste 26 Sudoeste 0 -- -- 40
2019-07-25 19:00:00 31.1 15 Sudoeste 35 Oeste 0 -- -- 37
2019-07-25 18:00:00 32.2 17 Sudoeste 31 Sudoeste 0 -- -- 38
2019-07-25 17:00:00 33.4 21 Sudoeste 33 Sudoeste 0 -- -- 35
2019-07-25 16:00:00 33.7 14 Sudoeste 32 Sudoeste 0 -- -- 31
2019-07-25 15:00:00 33.1 14 Sudoeste 24 Sudoeste 0 -- -- 30
2019-07-25 14:00:00 32.1 9 Sudoeste 22 Sudoeste 0 -- -- 31
2019-07-25 13:00:00 31.3 9 Sudoeste 18 Sudoeste 0 -- -- 30
2019-07-25 12:00:00 30.1 10 Oeste 17 Sudoeste 0 -- -- 35
2019-07-25 11:00:00 28.8 6 Sur 13 Sudoeste 0 -- -- 35
2019-07-25 10:00:00 25.5 4 Este 10 Este 0 -- -- 46
2019-07-25 09:00:00 22 5 Este 13 Este 0 -- -- 64
2019-07-25 08:00:00 20 7 Este 14 Este 0 -- -- 71
2019-07-25 07:00:00 19.3 7 Este 14 Este 0 -- -- 73
2019-07-25 06:00:00 19.7 7 Este 12 Este 0 -- -- 72
2019-07-25 05:00:00 20 6 Nordeste 13 Nordeste 0 -- -- 71
2019-07-25 04:00:00 19.9 7 Este 10 Este 0 -- -- 73
2019-07-25 03:00:00 21.1 5 Este 12 Este 0 -- -- 67
2019-07-25 02:00:00 21.9 6 Este 9 Este 0 -- -- 64
2019-07-25 01:00:00 22.9 6 Este 9 Este 0 -- -- 60
2019-07-25 00:00:00 24.3 4 Nordeste 9 Este 0 -- -- 54
2019-07-24 23:00:00 25.7 0 Calma 6 Sudoeste 0 -- -- 49
2019-07-24 22:00:00 27.1 4 Sudoeste 11 Sur 0 -- -- 47
2019-07-24 21:00:00 28.4 5 Sudoeste 22 Sudoeste 0 -- -- 44
2019-07-24 20:00:00 30.2 15 Sudoeste 23 Sudoeste 0 -- -- 42
2019-07-24 19:00:00 32.4 17 Sudoeste 28 Oeste 0 -- -- 37
2019-07-24 18:00:00 34.2 14 Oeste 26 Oeste 0 -- -- 30
2019-07-24 17:00:00 34.8 8 Sudoeste 21 Sudoeste 0 -- -- 26
2019-07-24 16:00:00 34.3 9 Sur 24 Oeste 0 -- -- 26
2019-07-24 15:00:00 33.7 9 Oeste 22 Sudoeste 0 -- -- 31
2019-07-24 14:00:00 32.7 7 Sudoeste 21 Oeste 0 -- -- 33
2019-07-24 13:00:00 31.8 9 Oeste 20 Sudoeste 0 -- -- 35
2019-07-24 12:00:00 31 10 Oeste 16 Sudoeste 0 -- -- 39
2019-07-24 11:00:00 29.8 8 Sudoeste 13 Sudoeste 0 -- -- 38
2019-07-24 10:00:00 26 5 Este 11 Este 0 -- -- 49
2019-07-24 09:00:00 22 6 Este 13 Este 0 -- -- 58
2019-07-24 08:00:00 19.4 7 Este 14 Nordeste 0 -- -- 65
2019-07-24 07:00:00 19.4 7 Este 17 Este 0 -- -- 61
2019-07-24 06:00:00 19.4 7 Este 14 Este 0 -- -- 63
2019-07-24 05:00:00 19.9 6 Nordeste 15 Nordeste 0 -- -- 62
2019-07-24 04:00:00 20.7 6 Este 14 Este 0 -- -- 59
2019-07-24 03:00:00 21 6 Este 14 Este 0 -- -- 58
2019-07-24 02:00:00 21.6 8 Este 13 Este 0 -- -- 56
2019-07-24 01:00:00 22.1 7 Este 10 Este 0 -- -- 55
2019-07-24 00:00:00 23.7 7 Este 10 Este 0 -- -- 49
2019-07-23 23:00:00 25.6 3 Este 9 Nordeste 0 -- -- 42
2019-07-23 22:00:00 27.2 4 Noroeste 14 Oeste 0 -- -- 38
2019-07-23 21:00:00 28.7 6 Oeste 20 Sudoeste 0 -- -- 35
2019-07-23 20:00:00 31.2 10 Oeste 22 Sudoeste 0 -- -- 32
2019-07-23 19:00:00 32.8 15 Sudoeste 25 Sudoeste 0 -- -- 29
2019-07-23 18:00:00 34.3 14 Sudoeste 36 Sudoeste 0 -- -- 28
2019-07-23 17:00:00 35.8 22 Sudoeste 39 Sudoeste 0 -- -- 26
2019-07-23 16:00:00 36.5 23 Sudoeste 48 Sudoeste 0 -- -- 22
2019-07-23 15:00:00 36.2 25 Sudoeste 45 Sudoeste 0 -- -- 22
2019-07-23 14:00:00 35.5 18 Sudoeste 31 Sudoeste 0 -- -- 23
2019-07-23 13:00:00 33 9 Oeste 15 Oeste 0 -- -- 33
2019-07-23 12:00:00 31.6 4 Sudoeste 10 Oeste 0 -- -- 35
2019-07-23 11:00:00 29.3 6 Sudoeste 10 Oeste 0 -- -- 39
2019-07-23 10:00:00 26 2 Sudoeste 9 Este 0 -- -- 52
2019-07-23 09:00:00 21.6 5 Este 14 Este 0 -- -- 60
2019-07-23 08:00:00 19.2 7 Este 13 Este 0 -- -- 66
2019-07-23 07:00:00 18.7 8 Este 14 Nordeste 0 -- -- 64
2019-07-23 06:00:00 19.2 8 Este 14 Este 0 -- -- 64
2019-07-23 05:00:00 19.7 8 Este 14 Este 0 -- -- 62
2019-07-23 04:00:00 19.8 7 Este 14 Sudeste 0 -- -- 64
2019-07-23 03:00:00 19.9 8 Este 13 Este 0 -- -- 66
2019-07-23 02:00:00 21.2 7 Este 12 Este 0 -- -- 60
2019-07-23 01:00:00 21.7 7 Este 11 Nordeste 0 -- -- 59
2019-07-23 00:00:00 23.2 6 Este 9 Este 0 -- -- 53
2019-07-22 23:00:00 24.9 4 Nordeste 10 Este 0 -- -- 48
2019-07-22 22:00:00 26.7 5 Sur 10 Oeste 0 -- -- 42
2019-07-22 21:00:00 27.8 8 Sudoeste 16 Sudoeste 0 -- -- 42
2019-07-22 20:00:00 30.5 11 Oeste 21 Sudoeste 0 -- -- 36
2019-07-22 19:00:00 32.1 13 Sudoeste 29 Sur 0 -- -- 34
2019-07-22 18:00:00 33.7 14 Sudoeste 32 Sudoeste 0 -- -- 34
2019-07-22 17:00:00 34.7 14 Sudoeste 30 Sudoeste 0 -- -- 30
2019-07-22 16:00:00 35.2 16 Sudoeste 35 Sudoeste 0 -- -- 27
2019-07-22 15:00:00 34.9 11 Oeste 24 Sudoeste 0 -- -- 28
2019-07-22 14:00:00 33.7 7 Sur 17 Sudoeste 0 -- -- 30
2019-07-22 13:00:00 32.1 6 Oeste 15 Sudoeste 0 -- -- 35
2019-07-22 12:00:00 30.4 6 Oeste 12 Oeste 0 -- -- 42
2019-07-22 11:00:00 29 4 Sudoeste 10 Sudoeste 0 -- -- 45
2019-07-22 10:00:00 25.3 4 Este 9 Este 0 -- -- 56
2019-07-22 09:00:00 21.5 6 Este 13 Nordeste 0 -- -- 66
2019-07-22 08:00:00 20 8 Este 15 Nordeste 0 -- -- 69
2019-07-22 07:00:00 19.4 8 Este 16 Este 0 -- -- 71
2019-07-22 06:00:00 19.9 8 Este 14 Este 0 -- -- 71
2019-07-22 05:00:00 20.5 8 Este 21 Este 0 -- -- 69
2019-07-22 04:00:00 21.9 12 Nordeste 21 Nordeste 0 -- -- 64
2019-07-22 03:00:00 21.1 9 Este 17 Este 0 -- -- 67
2019-07-22 02:00:00 21 9 Este 15 Este 0 -- -- 67
2019-07-22 01:00:00 21.3 7 Este 12 Este 0 -- -- 64
2019-07-22 00:00:00 22.7 4 Este 8 Este 0 -- -- 56
2019-07-21 23:00:00 24.4 0 Calma 6 Norte 0 -- -- 51
2019-07-21 22:00:00 25.2 3 Oeste 6 Sudoeste 0 -- -- 48
2019-07-21 21:00:00 26.5 5 Sudoeste 15 Sudoeste 0 -- -- 45
2019-07-21 20:00:00 28.4 8 Sudoeste 26 Sudoeste 0 -- -- 43
2019-07-21 19:00:00 30 12 Sudoeste 27 Sudoeste 0 -- -- 44
2019-07-21 18:00:00 31.3 16 Sudoeste 31 Sudoeste 0 -- -- 46
2019-07-21 17:00:00 32.3 8 Sudoeste 32 Sudoeste 0 -- -- 44
2019-07-21 16:00:00 32.7 15 Sudoeste 30 Sudoeste 0 -- -- 41
2019-07-21 15:00:00 32.3 15 Sudoeste 29 Sudoeste 0 -- -- 42
2019-07-21 14:00:00 31.8 16 Sudoeste 27 Sudoeste 0 -- -- 39
2019-07-21 13:00:00 30 10 Sudoeste 23 Sudoeste 0 -- -- 42
2019-07-21 12:00:00 28.3 6 Sudoeste 14 Sudoeste 0 -- -- 48
2019-07-21 11:00:00 26.7 6 Sudoeste 12 Sudoeste 0 -- -- 53
2019-07-21 10:00:00 23.9 3 Este 9 Este 0 -- -- 61
2019-07-21 09:00:00 21.3 6 Este 13 Este 0 -- -- 71
2019-07-21 08:00:00 19.2 8 Este 15 Este 0 -- -- 78
2019-07-21 07:00:00 18.3 8 Este 14 Este 0 -- -- 83
2019-07-21 06:00:00 18.4 6 Este 12 Este 0 -- -- 84
2019-07-21 05:00:00 18.8 5 Este 9 Este 0 -- -- 84
2019-07-21 04:00:00 19.5 4 Este 11 Este 0 -- -- 81
2019-07-21 03:00:00 19.7 6 Este 11 Este 0 -- -- 81
2019-07-21 02:00:00 20.1 5 Este 8 Este 0 -- -- 79
2019-07-21 01:00:00 20.9 5 Este 8 Este 0 -- -- 76
2019-07-21 00:00:00 22.5 2 Sudoeste 6 Este 0 -- -- 69
2019-07-20 23:00:00 23.2 2 Sudoeste 8 Sudoeste 0 -- -- 66
2019-07-20 22:00:00 24.3 5 Sudoeste 9 Sur 0 -- -- 63
2019-07-20 21:00:00 25.4 5 Sudoeste 19 Oeste 0 -- -- 60
2019-07-20 20:00:00 27.6 12 Sudoeste 22 Sudoeste 0 -- -- 53
2019-07-20 19:00:00 28.8 16 Sudoeste 27 Sudoeste 0 -- -- 49
2019-07-20 18:00:00 30.3 19 Sudoeste 30 Oeste 0 -- -- 46
2019-07-20 17:00:00 31.4 15 Sudoeste 28 Oeste 0 -- -- 45
2019-07-20 16:00:00 31.4 15 Sudoeste 28 Sudoeste 0 -- -- 42
2019-07-20 15:00:00 31.3 10 Sudoeste 32 Oeste 0 -- -- 43
2019-07-20 14:00:00 29.7 6 Oeste 19 Sudoeste 0 -- -- 43
2019-07-20 13:00:00 27.9 8 Sur 17 Oeste 0 -- -- 49
2019-07-20 12:00:00 26.5 5 Oeste 14 Sudoeste 0 -- -- 54
2019-07-20 11:00:00 24.6 4 Sudoeste 12 Sudoeste 0 -- -- 59
2019-07-20 10:00:00 22 3 Este 8 Este 0 -- -- 64
2019-07-20 09:00:00 18.8 6 Este 9 Este 0 -- -- 85
2019-07-20 08:00:00 17.4 4 Este 9 Este 0 -- -- 89
2019-07-20 07:00:00 17.2 6 Este 8 Nordeste 0 -- -- 89
2019-07-20 06:00:00 17.5 4 Nordeste 10 Este 0 -- -- 87
2019-07-20 05:00:00 17.5 7 Este 9 Este 0 -- -- 86
2019-07-20 04:00:00 17.9 5 Este 9 Este 0 -- -- 82
2019-07-20 03:00:00 18.1 5 Este 8 Este 0 -- -- 80
2019-07-20 02:00:00 19.1 5 Este 8 Este 0 -- -- 74
2019-07-20 01:00:00 19.9 4 Este 8 Este 0 -- -- 70
2019-07-20 00:00:00 20.8 4 Este 6 Este 0 -- -- 66
2019-07-19 23:00:00 21.5 3 Sudoeste 10 Sudoeste 0 -- -- 66
2019-07-19 22:00:00 22.5 5 Sudoeste 14 Sudoeste 0 -- -- 61
2019-07-19 21:00:00 23.9 8 Sudoeste 20 Sudoeste 0 -- -- 66
2019-07-19 20:00:00 24.8 10 Sudoeste 19 Sudoeste 0 -- -- 66
2019-07-19 19:00:00 24.9 12 Sudoeste 24 Sudoeste 0 -- -- 66
2019-07-19 18:00:00 25.9 16 Sudoeste 27 Oeste 0 -- -- 64
2019-07-19 17:00:00 26.7 12 Sudoeste 28 Sudoeste 0 -- -- 61
2019-07-19 16:00:00 27.3 11 Sudoeste 22 Oeste 0 -- -- 57
2019-07-19 15:00:00 26.4 4 Este 17 Sudeste 0 -- -- 57
2019-07-19 14:00:00 26.1 7 Sudoeste 20 Oeste 0 -- -- 55
2019-07-19 13:00:00 25.6 11 Oeste 19 Sudoeste 0 -- -- 59
2019-07-19 12:00:00 24.7 7 Sur 16 Oeste 0 -- -- 65
2019-07-19 11:00:00 22.7 6 Sudoeste 13 Sudoeste 0 -- -- 72
2019-07-19 10:00:00 20.7 3 Sudoeste 8 Este 0 -- -- 78
2019-07-19 09:00:00 19.3 3 Nordeste 7 Nordeste 0 -- -- 82
2019-07-19 08:00:00 17.4 4 Este 8 Nordeste 0 -- -- 91
2019-07-19 07:00:00 17.1 4 Este 6 Nordeste 0 -- -- 92
2019-07-19 06:00:00 17.6 4 Este 6 Este 0 -- -- 91
2019-07-19 05:00:00 18.3 3 Oeste 7 Sur 0 -- -- 88
2019-07-19 04:00:00 18.9 2 Nordeste 6 Este 0 -- -- 87
2019-07-19 03:00:00 19.8 4 Sudoeste 5 Sudoeste 0 -- -- 83
2019-07-19 02:00:00 20.1 4 Sudoeste 8 Sudoeste 0 -- -- 83
2019-07-19 01:00:00 20.5 5 Sudoeste 9 Oeste 0 -- -- 81
2019-07-19 00:00:00 21.2 5 Sudoeste 9 Sudoeste 0 -- -- 78